Estación Meteorológica Peña el Pijo (Robertgarden) [ 08/22/19 15:37:07 CEST ]

Fecha Hora Presion(HPa) Temp (°C) Humedad % Rocio (°C) Viento ( m/s) Direccion Lluvia 1Hora(mm) Lluvia 24H(mm) LLuvia Total(mm)
2019-Feb-03 01:01:35 1005.400 1.3 66 -4.4 0.8 N   2.59 183.37
2019-Feb-03 02:04:10 1005.600 1.1 65 -4.8       2.59 183.37
2019-Feb-03 03:01:23 1006.000 1.3 64 -4.8 3.3 WNW   2.59 183.37
2019-Feb-03 04:01:41 1006.300 1.0 65 -4.9 1.1 WNW   2.59 183.37
2019-Feb-03 05:01:35 1006.700 0.9 63 -5.4       2.59 183.37
2019-Feb-03 06:01:28 1007.300 0.5 63 -5.8       2.59 183.37
2019-Feb-03 07:01:47 1007.700 0.1 65 -5.7       2.59 183.37
2019-Feb-03 08:01:42 1008.700 -0.4 66 -6.0       2.59 183.37
2019-Feb-03 09:01:32 1010.000 -0.5 66 -6.1       2.59 183.37
2019-Feb-03 10:01:19 1010.400 2.4 57 -5.3       2.59 183.37
2019-Feb-03 11:01:53 1010.500 4.1 47 -6.3       2.07 183.37
2019-Feb-03 12:01:59 1010.400 4.9 43 -6.7       1.03 183.37
2019-Feb-03 13:01:56 1009.800 4.8 44 -6.5       0.51 183.37
2019-Feb-03 14:01:43 1009.800 6.6 41 -5.8       0.51 183.37
2019-Feb-03 15:01:34 1009.400 6.8 40 -5.9         183.37
2019-Feb-03 16:01:32 1010.200 5.9 42 -6.1 2.6 NE     183.37
2019-Feb-03 17:01:45 1010.400 5.4 44 -6.0         183.37
2019-Feb-03 18:01:47 1011.000 3.6 49 -6.1         183.37
2019-Feb-03 19:01:55 1011.500 2.4 53 -6.2         183.37
2019-Feb-03 20:01:55 1012.100 2.2 56 -5.7         183.37
2019-Feb-03 21:02:04 1012.700 1.6 57 -6.0         183.37
2019-Feb-03 22:01:57 1012.800 1.4 60 -5.5         183.37
2019-Feb-03 23:01:49 1013.700 1.3 60 -5.6         183.37

Temperatura Máxima:    Temperatura Mínima:
Presión Máxima:1013.700 Hpa    Presión Mínima:1005.400 Hpa


Volver